Time;durP1;ratioP1;P1;durP2;ratioP2;P2;SDS_P1;SDS_P2;PMS_P1;PMS_P2;Temp;Humidity;BMP_temperature;BMP_pressure;BME280_temperature;BME280_humidity;BME280_pressure;Samples;Min_cycle;Max_cycle;Signal;HPM_P1;HPM_P2
2021/06/25 00:01:43;;;;;;;3.60;0.82;;;16.50;99.90;;;;;;5031645;28;20093;-74
2021/06/25 00:04:09;;;;;;;0.60;0.43;;;16.40;99.90;;;;;;5030218;28;20070;-73
2021/06/25 00:06:35;;;;;;;0.50;0.40;;;16.40;99.90;;;;;;5028682;28;20074;-73
2021/06/25 00:09:00;;;;;;;1.88;0.65;;;16.40;99.90;;;;;;5010378;28;20076;-73
2021/06/25 00:11:26;;;;;;;2.15;0.50;;;16.40;99.90;;;;;;5028956;28;20457;-73
2021/06/25 00:13:54;;;;;;;1.50;0.80;;;16.30;99.90;;;;;;5024765;28;20175;-74
2021/06/25 00:16:20;;;;;;;0.50;0.50;;;16.30;99.90;;;;;;5029264;28;20117;-73
2021/06/25 00:18:46;;;;;;;0.77;0.43;;;16.30;99.90;;;;;;5026454;28;20132;-73
2021/06/25 00:21:12;;;;;;;1.02;0.68;;;16.40;99.90;;;;;;5028644;28;20120;-73
2021/06/25 00:23:37;;;;;;;1.38;0.45;;;16.30;99.90;;;;;;5028488;28;20157;-73
2021/06/25 00:26:03;;;;;;;1.20;0.77;;;16.30;99.90;;;;;;5029208;28;20089;-73
2021/06/25 00:28:29;;;;;;;2.15;0.60;;;16.20;99.90;;;;;;5028492;28;20101;-74
2021/06/25 00:30:54;;;;;;;0.65;0.40;;;16.30;99.90;;;;;;5029513;28;20584;-74
2021/06/25 00:33:20;;;;;;;1.10;1.00;;;16.30;99.90;;;;;;5029052;28;20078;-74
2021/06/25 00:35:46;;;;;;;1.00;0.55;;;16.20;99.90;;;;;;5021142;28;20149;-73
2021/06/25 00:38:11;;;;;;;2.60;0.60;;;16.30;99.90;;;;;;5007335;28;20181;-73
2021/06/25 00:40:37;;;;;;;1.70;0.90;;;16.30;99.90;;;;;;5027927;28;20147;-73
2021/06/25 00:43:04;;;;;;;0.93;0.60;;;16.20;99.90;;;;;;5029186;28;20152;-74
2021/06/25 00:45:30;;;;;;;1.35;0.70;;;16.30;99.90;;;;;;5030435;28;20116;-73
2021/06/25 00:47:56;;;;;;;1.40;0.90;;;16.30;99.90;;;;;;5029405;28;20090;-73
2021/06/25 00:50:25;;;;;;;0.95;0.70;;;16.20;99.90;;;;;;5014450;28;20216;-74
2021/06/25 00:52:53;;;;;;;1.08;0.70;;;16.20;99.90;;;;;;5027666;28;20082;-73
2021/06/25 00:55:19;;;;;;;1.63;0.82;;;16.30;99.90;;;;;;5029848;28;20093;-73
2021/06/25 00:57:46;;;;;;;1.17;0.65;;;16.30;99.90;;;;;;5011805;28;20147;-74
2021/06/25 01:00:12;;;;;;;0.77;0.77;;;16.30;99.90;;;;;;5028093;28;20077;-73
2021/06/25 01:02:38;;;;;;;1.15;0.80;;;16.30;99.90;;;;;;5030626;28;20066;-71
2021/06/25 01:05:06;;;;;;;0.80;0.70;;;16.30;99.90;;;;;;5012126;28;20096;-73
2021/06/25 01:07:32;;;;;;;3.13;1.20;;;16.40;99.90;;;;;;5029123;28;20102;-73
2021/06/25 01:09:59;;;;;;;1.73;0.88;;;16.40;99.90;;;;;;5029649;28;20070;-73
2021/06/25 01:12:26;;;;;;;2.20;0.82;;;16.30;99.90;;;;;;5028234;28;20767;-74
2021/06/25 01:14:53;;;;;;;1.33;0.52;;;16.30;99.90;;;;;;5029170;28;20151;-74
2021/06/25 01:17:36;;;;;;;1.83;1.00;;;16.30;99.90;;;;;;5028585;28;20567;-74
2021/06/25 01:20:17;;;;;;;0.82;0.60;;;16.30;99.90;;;;;;5025629;28;20077;-74
2021/06/25 01:22:43;;;;;;;1.42;0.95;;;16.30;99.90;;;;;;5027779;28;20735;-73
2021/06/25 01:25:22;;;;;;;1.20;0.88;;;16.40;99.90;;;;;;5026835;28;20158;-73
2021/06/25 01:27:51;;;;;;;1.00;0.73;;;16.40;99.90;;;;;;5026834;28;20102;-73
2021/06/25 01:30:20;;;;;;;0.80;0.80;;;16.30;99.90;;;;;;5005532;28;20089;-73
2021/06/25 01:32:47;;;;;;;0.98;0.65;;;16.30;99.90;;;;;;4996000;28;20070;-73
2021/06/25 01:35:14;;;;;;;1.70;0.70;;;16.30;99.90;;;;;;5023745;28;20503;-74
2021/06/25 01:37:40;;;;;;;1.50;0.95;;;16.30;99.90;;;;;;5027251;28;20168;-74
2021/06/25 01:40:08;;;;;;;1.80;0.70;;;16.30;99.90;;;;;;5025705;28;20078;-73
2021/06/25 01:42:36;;;;;;;1.42;0.55;;;16.30;99.90;;;;;;5028182;28;20070;-74
2021/06/25 01:45:08;;;;;;;0.73;0.60;;;16.30;99.90;;;;;;5028953;28;20533;-74
2021/06/25 01:47:39;;;;;;;2.40;1.15;;;16.20;99.90;;;;;;5028731;28;20097;-74
2021/06/25 01:50:39;;;;;;;1.25;0.88;;;16.20;99.90;;;;;;5000429;28;20596;-74
2021/06/25 01:53:11;;;;;;;0.82;0.70;;;16.20;99.90;;;;;;5025793;28;20105;-73
2021/06/25 01:55:40;;;;;;;1.10;0.77;;;16.10;99.90;;;;;;5025530;28;20526;-73
2021/06/25 01:58:12;;;;;;;0.85;0.80;;;16.20;99.90;;;;;;5027576;28;20100;-73
2021/06/25 02:00:40;;;;;;;1.40;0.73;;;16.20;99.90;;;;;;5026408;28;20157;-73
2021/06/25 02:03:06;;;;;;;1.52;0.70;;;16.20;99.90;;;;;;5029327;28;20488;-73
2021/06/25 02:05:31;;;;;;;2.00;0.52;;;16.20;99.90;;;;;;5023732;28;20086;-73
2021/06/25 02:07:57;;;;;;;2.42;0.77;;;16.20;99.90;;;;;;5029272;28;20094;-73
2021/06/25 02:10:23;;;;;;;1.15;0.68;;;16.10;99.90;;;;;;5029338;28;20082;-73
2021/06/25 02:12:48;;;;;;;2.92;0.65;;;16.10;99.90;;;;;;5010069;28;20109;-73
2021/06/25 02:15:14;;;;;;;1.35;0.75;;;16.00;99.90;;;;;;5010331;28;20480;-74
2021/06/25 02:17:40;;;;;;;1.73;0.50;;;16.00;99.90;;;;;;5026405;28;20105;-73
2021/06/25 02:20:07;;;;;;;2.08;0.60;;;16.00;99.90;;;;;;5026576;28;20070;-74
2021/06/25 02:22:33;;;;;;;0.57;0.50;;;16.00;99.90;;;;;;5015187;28;20074;-74
2021/06/25 02:24:59;;;;;;;3.15;0.70;;;16.10;99.90;;;;;;5029188;28;20070;-74
2021/06/25 02:27:25;;;;;;;2.17;0.60;;;16.00;99.90;;;;;;5025248;28;20554;-73
2021/06/25 02:29:50;;;;;;;2.15;0.60;;;16.10;99.90;;;;;;5027146;28;20078;-74
2021/06/25 02:32:16;;;;;;;1.60;0.60;;;16.10;99.90;;;;;;4997457;28;20082;-73
2021/06/25 02:34:41;;;;;;;1.40;0.40;;;16.00;99.90;;;;;;5025783;28;20102;-73
2021/06/25 02:37:07;;;;;;;1.17;0.77;;;16.00;99.90;;;;;;5028866;28;20090;-74
2021/06/25 02:39:33;;;;;;;0.98;0.57;;;15.90;99.90;;;;;;5019755;28;20074;-74
2021/06/25 02:41:58;;;;;;;1.27;0.60;;;15.90;99.90;;;;;;5028390;28;20120;-74
2021/06/25 02:44:24;;;;;;;1.55;0.30;;;15.90;99.90;;;;;;5026391;28;20172;-74
2021/06/25 02:46:49;;;;;;;2.00;0.70;;;15.80;99.90;;;;;;5028517;28;20552;-73
2021/06/25 02:49:16;;;;;;;0.88;0.55;;;15.80;99.90;;;;;;5028831;28;20534;-73
2021/06/25 02:51:43;;;;;;;0.73;0.50;;;15.80;99.90;;;;;;5026453;28;20082;-73
2021/06/25 02:54:08;;;;;;;0.60;0.35;;;15.80;99.90;;;;;;5011534;28;20094;-73
2021/06/25 02:56:34;;;;;;;0.60;0.40;;;15.80;99.90;;;;;;5024674;28;20124;-74
2021/06/25 02:58:59;;;;;;;1.88;0.40;;;15.80;99.90;;;;;;5031025;28;20094;-73
2021/06/25 03:01:25;;;;;;;0.93;0.68;;;15.80;99.90;;;;;;5030995;28;20082;-73
2021/06/25 03:03:50;;;;;;;0.90;0.60;;;15.80;99.90;;;;;;5030699;28;20086;-75
2021/06/25 03:06:16;;;;;;;0.95;0.43;;;15.70;99.90;;;;;;5031477;28;20084;-74
2021/06/25 03:08:42;;;;;;;1.23;0.30;;;15.70;99.90;;;;;;5028237;28;20089;-74
2021/06/25 03:11:07;;;;;;;0.68;0.40;;;15.70;99.90;;;;;;5031120;28;20078;-74
2021/06/25 03:13:33;;;;;;;1.25;0.60;;;15.70;99.90;;;;;;5014348;28;20161;-73
2021/06/25 03:15:58;;;;;;;0.63;0.30;;;15.60;99.90;;;;;;5030191;28;20153;-74
2021/06/25 03:18:24;;;;;;;1.02;0.30;;;15.70;99.90;;;;;;5018604;28;20453;-74
2021/06/25 03:20:50;;;;;;;1.05;0.60;;;15.60;99.90;;;;;;5028586;28;20066;-73
2021/06/25 03:23:15;;;;;;;1.35;0.50;;;15.50;99.90;;;;;;5030091;28;20495;-73
2021/06/25 03:25:41;;;;;;;0.60;0.30;;;15.60;99.90;;;;;;5013342;28;20085;-73
2021/06/25 03:28:07;;;;;;;0.63;0.60;;;15.50;99.90;;;;;;5030454;28;20085;-73
2021/06/25 03:30:33;;;;;;;1.42;0.20;;;15.50;99.90;;;;;;5029362;28;20136;-73
2021/06/25 03:32:59;;;;;;;1.15;0.30;;;15.50;99.90;;;;;;5029261;28;20070;-73
2021/06/25 03:35:24;;;;;;;0.95;0.30;;;15.50;99.90;;;;;;5030825;28;20105;-73
2021/06/25 03:37:50;;;;;;;0.43;0.30;;;15.40;99.90;;;;;;5030424;28;20088;-74
2021/06/25 03:40:16;;;;;;;0.32;0.30;;;15.40;99.90;;;;;;5030688;28;20106;-73
2021/06/25 03:42:43;;;;;;;2.55;0.63;;;15.50;99.90;;;;;;5013456;28;20161;-73
2021/06/25 03:45:11;;;;;;;1.73;0.38;;;15.60;99.90;;;;;;5029982;28;20192;-74
2021/06/25 03:47:36;;;;;;;0.70;0.40;;;15.60;99.90;;;;;;5006699;28;20577;-74
2021/06/25 03:50:04;;;;;;;0.98;0.40;;;15.60;99.90;;;;;;5027708;28;20120;-73
2021/06/25 03:52:30;;;;;;;0.40;0.40;;;15.60;99.90;;;;;;5030002;28;20156;-73
2021/06/25 03:54:56;;;;;;;0.85;0.50;;;15.60;99.90;;;;;;5030675;28;20176;-73
2021/06/25 03:57:21;;;;;;;0.45;0.38;;;15.60;99.90;;;;;;5027693;28;20100;-73
2021/06/25 03:59:47;;;;;;;1.52;0.52;;;15.50;99.90;;;;;;5028912;28;20093;-73
2021/06/25 04:02:13;;;;;;;1.75;0.50;;;15.60;99.90;;;;;;5031025;28;20078;-73
2021/06/25 04:04:39;;;;;;;0.60;0.50;;;15.60;99.90;;;;;;5014209;28;20082;-74
2021/06/25 04:07:05;;;;;;;2.40;0.57;;;15.60;99.90;;;;;;5030414;28;20085;-73
2021/06/25 04:09:32;;;;;;;0.73;0.70;;;15.50;99.90;;;;;;5030775;28;20074;-73
2021/06/25 04:11:58;;;;;;;0.45;0.40;;;15.50;99.90;;;;;;5031802;28;20549;-74
2021/06/25 04:14:24;;;;;;;0.88;0.45;;;15.50;99.90;;;;;;5031113;28;20090;-74
2021/06/25 04:16:49;;;;;;;0.70;0.50;;;15.70;99.90;;;;;;5028703;28;20621;-74
2021/06/25 04:19:15;;;;;;;0.70;0.40;;;15.60;99.90;;;;;;5010743;28;20500;-73
2021/06/25 04:21:40;;;;;;;0.80;0.63;;;15.60;99.90;;;;;;5028855;28;20085;-73
2021/06/25 04:24:06;;;;;;;0.60;0.50;;;15.70;99.90;;;;;;5025645;28;20070;-73
2021/06/25 04:26:33;;;;;;;2.17;0.50;;;15.60;99.90;;;;;;5021356;28;20098;-73
2021/06/25 04:29:02;;;;;;;1.25;0.60;;;15.50;99.90;;;;;;5028887;28;20086;-73
2021/06/25 04:31:28;;;;;;;0.50;0.40;;;15.60;99.90;;;;;;5028897;28;20102;-73
2021/06/25 04:33:53;;;;;;;0.90;0.40;;;15.60;99.90;;;;;;5029329;28;20205;-73
2021/06/25 04:36:20;;;;;;;0.55;0.40;;;15.60;99.90;;;;;;5022192;28;20070;-73
2021/06/25 04:38:45;;;;;;;0.73;0.47;;;15.50;99.90;;;;;;5026934;28;20489;-74
2021/06/25 04:41:11;;;;;;;1.40;0.40;;;15.60;99.90;;;;;;5029731;28;20565;-73
2021/06/25 04:43:36;;;;;;;1.13;0.60;;;15.60;99.90;;;;;;5012635;28;20117;-73
2021/06/25 04:46:02;;;;;;;1.58;0.85;;;15.60;99.90;;;;;;5028412;28;20085;-74
2021/06/25 04:48:28;;;;;;;0.40;0.35;;;15.60;99.90;;;;;;5026326;28;20129;-75
2021/06/25 04:50:53;;;;;;;0.60;0.45;;;15.60;99.90;;;;;;5029220;28;20546;-74
2021/06/25 04:53:19;;;;;;;1.60;0.70;;;15.60;99.90;;;;;;5011376;28;20220;-74
2021/06/25 04:55:45;;;;;;;0.68;0.50;;;15.60;99.90;;;;;;5029708;28;20088;-74
2021/06/25 04:58:13;;;;;;;0.95;0.40;;;15.50;99.90;;;;;;5026906;28;20089;-75
2021/06/25 05:00:43;;;;;;;0.63;0.52;;;15.60;99.90;;;;;;5023801;28;20131;-74
2021/06/25 05:03:09;;;;;;;0.45;0.38;;;15.70;99.90;;;;;;5029714;28;20145;-74
2021/06/25 05:05:38;;;;;;;2.05;0.50;;;15.70;99.90;;;;;;5027015;28;20072;-75
2021/06/25 05:08:04;;;;;;;0.98;0.50;;;15.70;99.90;;;;;;5021946;28;20097;-74
2021/06/25 05:10:31;;;;;;;1.40;0.52;;;15.70;99.90;;;;;;5017279;28;20074;-74
2021/06/25 05:12:57;;;;;;;0.93;0.52;;;15.80;99.90;;;;;;5024513;28;20065;-74
2021/06/25 05:15:22;;;;;;;0.25;0.25;;;15.70;99.90;;;;;;5023282;28;20121;-73
2021/06/25 05:17:50;;;;;;;0.55;0.50;;;15.70;99.90;;;;;;5010397;28;20104;-74
2021/06/25 05:20:17;;;;;;;1.13;0.60;;;15.70;99.90;;;;;;5012612;28;20120;-74
2021/06/25 05:22:42;;;;;;;0.93;0.50;;;15.80;99.90;;;;;;5018761;28;20081;-74
2021/06/25 05:25:08;;;;;;;0.85;0.50;;;15.80;99.90;;;;;;5026896;28;20074;-74
2021/06/25 05:27:34;;;;;;;1.13;0.57;;;15.80;99.90;;;;;;5018409;28;20289;-74
2021/06/25 05:30:00;;;;;;;0.70;0.40;;;15.80;99.90;;;;;;4992985;28;20079;-74
2021/06/25 05:32:26;;;;;;;3.63;0.57;;;15.80;99.90;;;;;;5019247;28;20137;-74
2021/06/25 05:34:51;;;;;;;1.60;0.50;;;15.80;99.90;;;;;;5027850;28;20086;-74
2021/06/25 05:37:17;;;;;;;1.13;0.50;;;15.90;99.90;;;;;;5029204;28;20113;-74
2021/06/25 05:39:43;;;;;;;2.08;0.50;;;16.00;99.90;;;;;;5025078;28;20148;-74
2021/06/25 05:42:09;;;;;;;1.30;0.47;;;15.90;99.90;;;;;;5021799;28;20089;-74
2021/06/25 05:44:35;;;;;;;0.70;0.40;;;15.90;99.90;;;;;;5025956;28;20090;-74
2021/06/25 05:47:02;;;;;;;1.02;0.60;;;15.90;99.90;;;;;;5023588;28;20177;-74
2021/06/25 05:49:27;;;;;;;0.80;0.50;;;15.90;99.90;;;;;;5026628;28;20088;-74
2021/06/25 05:51:53;;;;;;;0.68;0.60;;;15.90;99.90;;;;;;5014344;28;20082;-76
2021/06/25 05:54:18;;;;;;;0.65;0.50;;;15.90;99.90;;;;;;5015302;28;20189;-74
2021/06/25 05:56:44;;;;;;;1.67;0.50;;;16.00;99.90;;;;;;5024366;28;20086;-73
2021/06/25 05:59:10;;;;;;;1.15;0.70;;;16.00;99.90;;;;;;5028548;28;20082;-74
2021/06/25 06:01:35;;;;;;;0.73;0.50;;;16.00;99.90;;;;;;4999892;28;20123;-75
2021/06/25 06:04:01;;;;;;;1.42;0.68;;;15.90;99.90;;;;;;5021078;28;20070;-75
2021/06/25 06:06:27;;;;;;;0.77;0.43;;;15.90;99.90;;;;;;5025248;28;20112;-75
2021/06/25 06:08:52;;;;;;;1.73;0.60;;;16.10;99.90;;;;;;5026305;28;20093;-74
2021/06/25 06:11:18;;;;;;;0.63;0.52;;;16.00;99.90;;;;;;5026300;28;20113;-74
2021/06/25 06:13:44;;;;;;;1.30;0.70;;;16.00;99.90;;;;;;5027543;28;20166;-74
2021/06/25 06:16:10;;;;;;;1.00;0.70;;;16.20;99.90;;;;;;5024168;28;20082;-75
2021/06/25 06:18:43;;;;;;;0.65;0.50;;;16.30;99.90;;;;;;5021029;28;20094;-75
2021/06/25 06:21:09;;;;;;;0.88;0.75;;;16.30;99.90;;;;;;5023409;28;20088;-74
2021/06/25 06:31:56;;;;;;;1.50;0.60;;;16.90;99.90;;;;;;5025721;28;20089;-75
2021/06/25 06:34:22;;;;;;;0.85;0.55;;;17.00;99.90;;;;;;5029397;28;20089;-74
2021/06/25 06:36:48;;;;;;;1.92;0.80;;;17.10;99.90;;;;;;5012010;28;20070;-74
2021/06/25 06:39:14;;;;;;;2.00;0.60;;;17.20;99.90;;;;;;5031339;28;20534;-74
2021/06/25 06:41:40;;;;;;;3.08;1.10;;;17.30;99.90;;;;;;5028812;28;20156;-74
2021/06/25 06:44:07;;;;;;;1.15;0.65;;;17.40;99.90;;;;;;5029878;28;20082;-74
2021/06/25 06:46:34;;;;;;;2.45;1.02;;;17.40;99.90;;;;;;5029197;28;20469;-74
2021/06/25 06:49:00;;;;;;;1.40;0.80;;;17.50;99.90;;;;;;5024293;28;20624;-74
2021/06/25 06:51:27;;;;;;;2.58;1.00;;;17.60;99.90;;;;;;5024698;28;20078;-74
2021/06/25 06:53:56;;;;;;;1.13;1.02;;;17.60;99.90;;;;;;5023669;28;20085;-74
2021/06/25 06:56:22;;;;;;;1.05;0.63;;;17.50;99.90;;;;;;5024962;28;20090;-74
2021/06/25 06:58:50;;;;;;;1.05;0.65;;;17.60;99.90;;;;;;4999910;28;20141;-74
2021/06/25 07:01:17;;;;;;;1.58;0.70;;;17.70;99.90;;;;;;5024316;28;20538;-73
2021/06/25 07:03:43;;;;;;;2.70;0.88;;;17.80;99.90;;;;;;5004366;28;20078;-74
2021/06/25 07:06:09;;;;;;;4.05;0.98;;;17.70;99.90;;;;;;5024329;28;20074;-74
2021/06/25 07:08:34;;;;;;;1.33;0.65;;;17.70;99.90;;;;;;5029577;28;20105;-74
2021/06/25 07:11:01;;;;;;;1.48;0.90;;;17.70;99.90;;;;;;5031502;28;20166;-74
2021/06/25 07:13:27;;;;;;;1.00;0.70;;;17.80;99.90;;;;;;5029842;28;20070;-73
2021/06/25 07:15:54;;;;;;;0.90;0.80;;;17.90;99.90;;;;;;5029672;28;20442;-74
2021/06/25 07:18:20;;;;;;;1.48;0.73;;;17.90;99.90;;;;;;5029470;28;20124;-74
2021/06/25 07:20:45;;;;;;;1.17;0.70;;;17.90;99.90;;;;;;5027843;28;20071;-74
2021/06/25 07:23:11;;;;;;;3.53;1.00;;;17.80;99.90;;;;;;5025146;28;20593;-73
2021/06/25 07:25:37;;;;;;;1.20;0.70;;;17.80;99.90;;;;;;5029468;28;20082;-73
2021/06/25 07:28:02;;;;;;;1.58;0.82;;;17.90;99.90;;;;;;5007694;28;20094;-74
2021/06/25 07:30:28;;;;;;;1.75;0.90;;;18.00;99.90;;;;;;5028233;28;20088;-73
2021/06/25 07:32:54;;;;;;;1.70;1.20;;;18.00;99.90;;;;;;5005121;28;20074;-73
2021/06/25 07:35:19;;;;;;;1.35;1.05;;;18.00;99.90;;;;;;5020556;28;20101;-73
2021/06/25 07:37:45;;;;;;;5.78;1.08;;;18.00;99.90;;;;;;5023246;28;20493;-73
2021/06/25 07:40:11;;;;;;;0.70;0.70;;;18.00;99.90;;;;;;5028978;28;20164;-74
2021/06/25 07:42:37;;;;;;;1.40;0.80;;;18.10;99.90;;;;;;5017753;28;20102;-74
2021/06/25 07:45:07;;;;;;;1.40;0.60;;;18.20;99.90;;;;;;5024971;28;20101;-73
2021/06/25 07:47:34;;;;;;;0.70;0.57;;;18.20;99.90;;;;;;5004278;28;20095;-74
2021/06/25 07:50:01;;;;;;;0.80;0.80;;;18.20;99.90;;;;;;5025645;28;20105;-73
2021/06/25 07:52:26;;;;;;;0.98;0.88;;;18.30;99.90;;;;;;5028104;28;20082;-73
2021/06/25 07:54:52;;;;;;;0.85;0.60;;;18.40;99.90;;;;;;5025227;28;20172;-73
2021/06/25 07:57:17;;;;;;;2.03;0.98;;;18.40;99.90;;;;;;5025626;28;20104;-73
2021/06/25 07:59:43;;;;;;;3.83;2.50;;;18.40;99.90;;;;;;5011337;28;20078;-74
2021/06/25 08:02:09;;;;;;;2.03;0.90;;;18.40;99.90;;;;;;5021875;28;20089;-74
2021/06/25 08:04:34;;;;;;;1.67;1.10;;;18.30;99.90;;;;;;5028516;28;20088;-74
2021/06/25 08:07:00;;;;;;;1.75;0.80;;;18.40;99.90;;;;;;5011839;28;20184;-74
2021/06/25 08:09:25;;;;;;;1.83;0.77;;;18.50;99.90;;;;;;5020865;28;20161;-74
2021/06/25 08:11:51;;;;;;;1.33;0.90;;;18.60;99.90;;;;;;5009148;28;20556;-74
2021/06/25 08:14:17;;;;;;;1.08;0.80;;;18.60;99.90;;;;;;5028148;28;20094;-73
2021/06/25 08:16:43;;;;;;;0.88;0.75;;;18.70;99.90;;;;;;5027352;28;20515;-74
2021/06/25 08:19:08;;;;;;;1.30;1.15;;;18.80;99.90;;;;;;5010641;28;20176;-73
2021/06/25 08:21:34;;;;;;;1.30;1.08;;;18.80;99.90;;;;;;5021236;28;20089;-73
2021/06/25 08:24:00;;;;;;;2.22;1.00;;;18.60;99.90;;;;;;5025543;28;20084;-73
2021/06/25 08:26:28;;;;;;;1.50;1.23;;;18.50;99.90;;;;;;5023745;28;20461;-74
2021/06/25 08:28:54;;;;;;;1.73;1.50;;;18.40;99.90;;;;;;5027514;28;20082;-73
2021/06/25 08:31:20;;;;;;;1.70;1.30;;;18.30;99.90;;;;;;5021914;28;20084;-73
2021/06/25 08:33:45;;;;;;;1.70;1.50;;;18.30;99.90;;;;;;5026920;28;20112;-73
2021/06/25 08:36:11;;;;;;;2.17;1.50;;;18.20;99.90;;;;;;5002093;28;20074;-73
2021/06/25 08:38:36;;;;;;;1.50;1.40;;;18.40;99.90;;;;;;5026666;28;20098;-74
2021/06/25 08:41:02;;;;;;;2.05;1.50;;;18.40;99.90;;;;;;5015448;28;20074;-73
2021/06/25 08:43:28;;;;;;;2.00;1.50;;;18.30;99.90;;;;;;5028699;28;20145;-73
2021/06/25 08:45:54;;;;;;;3.50;1.40;;;18.30;99.90;;;;;;5029889;28;20078;-74
2021/06/25 08:48:24;;;;;;;1.80;1.40;;;18.20;99.90;;;;;;5011289;28;20120;-73
2021/06/25 08:50:52;;;;;;;4.07;1.38;;;18.20;99.90;;;;;;5025446;28;20156;-73
2021/06/25 08:53:18;;;;;;;1.77;1.20;;;18.20;99.90;;;;;;5024450;28;20086;-73
2021/06/25 08:55:44;;;;;;;2.47;1.60;;;18.20;99.90;;;;;;5010003;28;20101;-73
2021/06/25 08:58:12;;;;;;;2.30;1.60;;;18.20;99.90;;;;;;5017829;28;20465;-73
2021/06/25 09:00:37;;;;;;;1.90;1.50;;;18.20;99.90;;;;;;5022408;28;20078;-73
2021/06/25 09:03:03;;;;;;;3.03;1.63;;;18.40;99.90;;;;;;5026051;28;20080;-74
2021/06/25 09:05:29;;;;;;;1.70;1.35;;;18.50;99.90;;;;;;5029862;28;20081;-72
2021/06/25 09:07:56;;;;;;;2.28;1.30;;;18.70;99.90;;;;;;5024984;28;20550;-73
2021/06/25 09:10:36;;;;;;;2.28;1.35;;;18.70;99.90;;;;;;5025063;28;20078;-74
2021/06/25 09:13:07;;;;;;;2.17;1.10;;;18.70;99.90;;;;;;5024107;28;20076;-74
2021/06/25 09:15:34;;;;;;;1.60;1.38;;;18.80;99.90;;;;;;5006269;28;20104;-74
2021/06/25 09:18:02;;;;;;;4.13;1.42;;;18.80;99.90;;;;;;5023165;28;20094;-73
2021/06/25 09:20:45;;;;;;;3.88;2.08;;;18.70;99.90;;;;;;5025539;28;20089;-74
2021/06/25 09:23:14;;;;;;;2.38;1.20;;;18.70;99.90;;;;;;5023435;28;20082;-74
2021/06/25 09:25:59;;;;;;;2.90;1.27;;;18.70;99.90;;;;;;5000056;28;20101;-72
2021/06/25 09:28:45;;;;;;;2.65;1.30;;;18.70;99.90;;;;;;5021381;28;20097;-72
2021/06/25 09:31:25;;;;;;;1.90;1.40;;;18.70;99.90;;;;;;5018137;28;20082;-73
2021/06/25 09:33:53;;;;;;;2.83;1.83;;;18.80;99.90;;;;;;5028067;28;20074;-72
2021/06/25 09:36:23;;;;;;;3.33;1.55;;;18.80;99.90;;;;;;5026738;28;20078;-74
2021/06/25 09:39:13;;;;;;;2.10;1.90;;;18.80;99.90;;;;;;5030588;28;20078;-73
2021/06/25 09:41:43;;;;;;;1.42;1.27;;;18.80;99.90;;;;;;5026007;28;20078;-72
2021/06/25 09:44:14;;;;;;;2.55;1.15;;;18.90;99.90;;;;;;5026697;28;20129;-72
2021/06/25 09:46:44;;;;;;;1.40;0.80;;;19.10;99.90;;;;;;5026000;28;20419;-72
2021/06/25 09:49:11;;;;;;;2.50;0.68;;;19.20;99.90;;;;;;4998731;28;20085;-71
2021/06/25 09:51:39;;;;;;;1.05;0.65;;;19.10;99.90;;;;;;5019882;28;20192;-72
2021/06/25 09:54:11;;;;;;;0.90;0.40;;;19.10;99.90;;;;;;5019863;28;20086;-72
2021/06/25 09:56:54;;;;;;;1.95;0.80;;;19.10;99.90;;;;;;5023562;28;20488;-71
2021/06/25 10:02:19;;;;;;;1.02;0.88;;;19.60;99.90;;;;;;5027636;28;20089;-72
2021/06/25 10:04:50;;;;;;;2.35;0.95;;;19.80;99.90;;;;;;5028261;28;20572;-71
2021/06/25 10:07:17;;;;;;;0.85;0.60;;;20.00;99.90;;;;;;5022763;28;20164;-71
2021/06/25 10:09:46;;;;;;;1.23;0.88;;;19.70;99.90;;;;;;5028507;28;20469;-70
2021/06/25 10:12:13;;;;;;;1.38;0.88;;;20.00;99.90;;;;;;5029239;28;20534;-75
2021/06/25 10:14:41;;;;;;;2.47;1.20;;;20.10;99.90;;;;;;5032086;28;20557;-73
2021/06/25 10:17:08;;;;;;;1.30;1.10;;;19.90;99.90;;;;;;5013402;28;20623;-73
2021/06/25 10:19:49;;;;;;;1.65;1.02;;;19.70;99.90;;;;;;5030873;28;20177;-73
2021/06/25 10:22:17;;;;;;;1.98;1.33;;;19.60;99.90;;;;;;5027994;28;20070;-73
2021/06/25 10:24:49;;;;;;;1.77;1.27;;;19.60;99.90;;;;;;5027973;28;20066;-73
2021/06/25 10:27:20;;;;;;;1.92;1.52;;;19.50;99.90;;;;;;5018263;28;20574;-75
2021/06/25 10:29:46;;;;;;;2.40;1.20;;;19.60;99.90;;;;;;5028699;28;20161;-75
2021/06/25 10:32:13;;;;;;;1.95;1.52;;;19.70;99.90;;;;;;5014131;28;20102;-73
2021/06/25 10:34:40;;;;;;;4.32;1.52;;;19.70;99.90;;;;;;5026272;28;20809;-74
2021/06/25 10:37:08;;;;;;;3.40;1.80;;;19.70;99.90;;;;;;5027164;28;20082;-74
2021/06/25 10:39:35;;;;;;;2.13;1.77;;;20.00;99.90;;;;;;5030564;28;20553;-74
2021/06/25 10:42:04;;;;;;;1.52;1.13;;;20.10;99.90;;;;;;5031003;28;20085;-73
2021/06/25 10:44:54;;;;;;;1.30;1.20;;;20.10;99.90;;;;;;5027289;28;21243;-73
2021/06/25 10:47:31;;;;;;;1.33;1.02;;;19.90;99.90;;;;;;5026321;28;20086;-74
2021/06/25 10:50:00;;;;;;;1.95;1.35;;;19.90;99.90;;;;;;5028818;28;20077;-74
2021/06/25 10:52:30;;;;;;;1.25;1.05;;;19.80;99.90;;;;;;5022089;28;20081;-74
2021/06/25 10:55:06;;;;;;;1.85;0.85;;;19.60;99.90;;;;;;5027875;28;20094;-74
2021/06/25 10:57:37;;;;;;;0.73;0.70;;;19.50;99.90;;;;;;5143911;22;20114;-72
2021/06/25 11:00:06;;;;;;;0.82;0.80;;;19.60;99.90;;;;;;5009609;28;20102;-72
2021/06/25 11:02:45;;;;;;;0.80;0.77;;;20.00;99.90;;;;;;5011706;28;20079;-73
2021/06/25 11:05:32;;;;;;;0.95;0.70;;;20.30;99.90;;;;;;4992296;28;20082;-73
2021/06/25 11:08:19;;;;;;;0.68;0.50;;;20.20;99.90;;;;;;5007809;28;20190;-72
2021/06/25 11:10:50;;;;;;;1.10;0.70;;;20.20;99.90;;;;;;5007892;28;20078;-73
2021/06/25 11:13:21;;;;;;;0.98;0.80;;;20.20;99.90;;;;;;5007001;28;20081;-72
2021/06/25 11:15:49;;;;;;;0.85;0.70;;;20.20;99.90;;;;;;5007928;28;20602;-73
2021/06/25 11:18:24;;;;;;;0.93;0.60;;;20.00;99.90;;;;;;5008756;28;20095;-73
2021/06/25 11:20:51;;;;;;;3.67;1.48;;;20.10;99.90;;;;;;5008631;28;20086;-75
2021/06/25 11:23:22;;;;;;;0.60;0.60;;;20.20;99.90;;;;;;5007609;28;20220;-74
2021/06/25 11:25:59;;;;;;;0.98;0.88;;;20.20;99.90;;;;;;5008335;28;20083;-73
2021/06/25 11:28:24;;;;;;;2.35;0.88;;;20.40;99.90;;;;;;5009690;28;20554;-73
2021/06/25 11:30:50;;;;;;;0.70;0.70;;;20.40;99.90;;;;;;5009212;28;20082;-74
2021/06/25 11:33:29;;;;;;;1.38;1.27;;;20.30;99.90;;;;;;5008427;28;20522;-73
2021/06/25 11:36:16;;;;;;;0.95;0.73;;;20.20;99.90;;;;;;5009094;28;20087;-72
2021/06/25 11:39:18;;;;;;;1.05;0.50;;;20.10;99.90;;;;;;5008978;28;20086;-72
2021/06/25 11:42:06;;;;;;;1.98;0.82;;;20.30;99.90;;;;;;5007176;28;20084;-72
2021/06/25 11:44:39;;;;;;;1.98;0.82;;;20.50;99.90;;;;;;4996009;28;20136;-72
2021/06/25 11:47:10;;;;;;;1.83;0.80;;;20.90;99.90;;;;;;5007385;28;20446;-72
2021/06/25 11:52:25;;;;;;;1.13;1.00;;;20.80;99.90;;;;;;5004582;28;21636;-72
2021/06/25 11:54:53;;;;;;;1.67;0.85;;;20.60;99.90;;;;;;5007840;28;20094;-73
2021/06/25 11:57:22;;;;;;;1.70;1.15;;;20.60;99.90;;;;;;5006347;28;20091;-73
2021/06/25 12:00:04;;;;;;;2.75;0.90;;;20.60;99.90;;;;;;4992986;28;20546;-73
2021/06/25 12:02:41;;;;;;;0.60;0.50;;;20.80;99.90;;;;;;5009750;28;20074;-73
2021/06/25 12:05:08;;;;;;;1.02;0.70;;;21.10;99.90;;;;;;5007797;28;20105;-73
2021/06/25 12:07:33;;;;;;;0.57;0.45;;;20.90;99.90;;;;;;5011771;28;20132;-73
2021/06/25 12:09:59;;;;;;;0.90;0.80;;;20.80;99.90;;;;;;5011011;28;20074;-73
2021/06/25 12:12:30;;;;;;;1.30;0.60;;;20.80;99.90;;;;;;5011151;28;20113;-73
2021/06/25 12:15:02;;;;;;;0.80;0.55;;;20.50;99.90;;;;;;5011253;28;20166;-73
2021/06/25 12:17:43;;;;;;;1.13;0.70;;;20.50;99.90;;;;;;5008691;28;20209;-73
2021/06/25 12:20:21;;;;;;;0.80;0.70;;;20.40;99.90;;;;;;5009737;28;20557;-73
2021/06/25 12:22:55;;;;;;;0.77;0.70;;;20.30;99.90;;;;;;5008975;28;20389;-73
2021/06/25 12:25:30;;;;;;;0.68;0.63;;;20.30;99.90;;;;;;5009156;28;20640;-73
2021/06/25 12:27:55;;;;;;;0.98;0.80;;;20.20;99.90;;;;;;5009270;28;20090;-74
2021/06/25 12:30:21;;;;;;;1.05;0.95;;;20.30;99.90;;;;;;5010374;28;20087;-73
2021/06/25 12:33:02;;;;;;;1.00;0.73;;;20.30;99.90;;;;;;5008801;28;20070;-74
2021/06/25 12:35:36;;;;;;;1.02;0.90;;;20.40;99.90;;;;;;5000140;28;20402;-72
2021/06/25 12:38:06;;;;;;;;;;;20.40;99.90;;;;;;5007292;28;20834;-73
2021/06/25 12:40:46;;;;;;;0.60;0.50;;;20.50;99.90;;;;;;5008701;28;19961;-72
2021/06/25 12:43:15;;;;;;;0.40;0.38;;;20.70;99.90;;;;;;5005379;28;20074;-72
2021/06/25 12:45:45;;;;;;;0.95;0.57;;;20.80;99.90;;;;;;5015571;28;20101;-72
2021/06/25 12:48:20;;;;;;;1.00;0.80;;;20.80;99.90;;;;;;4990881;28;20129;-72
2021/06/25 12:50:46;;;;;;;0.60;0.50;;;20.80;99.90;;;;;;5005785;28;20106;-73
2021/06/25 12:53:18;;;;;;;0.80;0.63;;;20.80;99.90;;;;;;5002575;28;20466;-72
2021/06/25 12:55:44;;;;;;;0.90;0.80;;;20.80;99.90;;;;;;5007298;28;20232;-73
2021/06/25 12:58:12;;;;;;;1.60;0.80;;;20.80;99.90;;;;;;5006512;28;20099;-73
2021/06/25 13:00:38;;;;;;;2.17;0.77;;;20.80;99.90;;;;;;5007803;28;20074;-73
2021/06/25 13:03:04;;;;;;;1.77;0.98;;;20.80;99.90;;;;;;5007811;28;20148;-73
2021/06/25 13:05:34;;;;;;;3.67;0.88;;;20.70;99.90;;;;;;5004916;28;20110;-72
2021/06/25 13:08:15;;;;;;;1.00;0.80;;;20.70;99.90;;;;;;5007526;28;20094;-73